createdAt,value
2023-01-07T00:01:18.773Z,6.00
2023-01-07T00:03:41.897Z,6.70
2023-01-07T00:06:06.105Z,6.00
2023-01-07T00:08:31.987Z,6.57
2023-01-07T00:10:54.344Z,5.80
2023-01-07T00:13:19.116Z,5.50
2023-01-07T00:15:41.406Z,5.30
2023-01-07T00:18:03.710Z,4.80
2023-01-07T00:20:25.991Z,4.30
2023-01-07T00:22:48.214Z,4.10
2023-01-07T00:25:10.532Z,4.10
2023-01-07T00:27:33.030Z,3.97
2023-01-07T00:29:55.259Z,3.80
2023-01-07T00:32:18.596Z,3.80
2023-01-07T00:34:41.853Z,3.90
2023-01-07T00:37:24.361Z,3.30
2023-01-07T00:39:46.674Z,3.37
2023-01-07T00:42:27.657Z,3.70
2023-01-07T00:44:49.909Z,3.27
2023-01-07T00:47:12.266Z,3.40
2023-01-07T00:49:34.471Z,3.10
2023-01-07T00:51:56.847Z,3.13
2023-01-07T00:54:19.965Z,3.83
2023-01-07T00:56:42.423Z,3.17
2023-01-07T00:59:04.681Z,3.30
2023-01-07T01:01:27.075Z,3.30
2023-01-07T01:03:49.621Z,3.33
2023-01-07T01:06:14.464Z,2.97
2023-01-07T01:08:36.923Z,3.20
2023-01-07T01:11:06.072Z,3.30
2023-01-07T01:13:28.265Z,3.53
2023-01-07T01:15:50.592Z,4.20
2023-01-07T01:18:13.393Z,3.80
2023-01-07T01:20:35.602Z,3.80
2023-01-07T01:22:57.838Z,3.90
2023-01-07T01:25:20.232Z,4.20
2023-01-07T01:27:42.508Z,4.13
2023-01-07T01:30:05.765Z,3.77
2023-01-07T01:32:31.004Z,4.33
2023-01-07T01:34:53.682Z,3.93
2023-01-07T01:37:16.137Z,4.03
2023-01-07T01:39:38.725Z,4.57
2023-01-07T01:42:01.464Z,4.40
2023-01-07T01:44:29.621Z,4.57
2023-01-07T01:46:52.387Z,4.10
2023-01-07T01:49:24.559Z,4.10
2023-01-07T01:51:50.861Z,4.07
2023-01-07T01:54:14.588Z,4.00
2023-01-07T01:56:41.541Z,3.83
2023-01-07T01:59:07.028Z,4.10
2023-01-07T02:01:32.557Z,3.90
2023-01-07T02:03:57.681Z,4.30
2023-01-07T02:06:23.651Z,4.10
2023-01-07T02:08:45.875Z,3.43
2023-01-07T02:11:23.562Z,3.93
2023-01-07T02:14:04.816Z,3.87
2023-01-07T02:16:35.956Z,3.33
2023-01-07T02:19:22.496Z,3.50
2023-01-07T02:21:58.842Z,3.60
2023-01-07T02:24:39.946Z,3.60
2023-01-07T02:27:02.251Z,3.73
2023-01-07T02:29:43.869Z,3.70
2023-01-07T02:32:25.232Z,3.80
2023-01-07T02:34:50.813Z,3.53
2023-01-07T02:37:22.609Z,3.67
2023-01-07T02:39:47.964Z,4.00
2023-01-07T02:42:20.501Z,3.70
2023-01-07T02:45:00.223Z,3.53
2023-01-07T02:47:37.222Z,3.23
2023-01-07T02:49:59.571Z,4.37
2023-01-07T02:52:29.737Z,3.43
2023-01-07T02:54:54.984Z,3.67
2023-01-07T02:57:31.801Z,3.73
2023-01-07T02:59:54.025Z,3.60
2023-01-07T03:02:28.597Z,3.80
2023-01-07T03:04:51.319Z,3.87
2023-01-07T03:07:25.400Z,3.77
2023-01-07T03:09:50.793Z,3.60
2023-01-07T03:12:35.209Z,4.00
2023-01-07T03:15:05.732Z,4.03
2023-01-07T03:17:32.141Z,3.37
2023-01-07T03:19:57.158Z,3.03
2023-01-07T03:22:21.429Z,2.93
2023-01-07T03:24:44.912Z,2.70
2023-01-07T03:27:09.219Z,3.20
2023-01-07T03:29:35.728Z,3.07
2023-01-07T03:32:14.189Z,3.00
2023-01-07T03:34:38.079Z,2.63
2023-01-07T03:37:04.836Z,3.10
2023-01-07T03:39:28.612Z,3.07
2023-01-07T03:42:10.024Z,2.80
2023-01-07T03:44:32.613Z,3.10
2023-01-07T03:46:54.978Z,3.10
2023-01-07T03:49:17.253Z,2.80
2023-01-07T03:51:39.527Z,2.90
2023-01-07T03:54:01.851Z,3.13
2023-01-07T03:56:24.256Z,3.57
2023-01-07T03:58:46.851Z,2.83
2023-01-07T04:01:09.282Z,2.90
2023-01-07T04:03:32.127Z,3.30
2023-01-07T04:05:54.417Z,2.53
2023-01-07T04:08:18.802Z,3.47
2023-01-07T04:10:41.356Z,2.93
2023-01-07T04:13:04.079Z,2.93
2023-01-07T04:15:26.307Z,3.20
2023-01-07T04:17:48.580Z,3.10
2023-01-07T04:20:12.285Z,3.13
2023-01-07T04:22:34.740Z,3.47
2023-01-07T04:24:58.133Z,2.90
2023-01-07T04:27:20.584Z,3.63
2023-01-07T04:29:43.611Z,3.93
2023-01-07T04:32:06.091Z,3.30
2023-01-07T04:34:30.940Z,3.93
2023-01-07T04:36:53.184Z,3.60
2023-01-07T04:39:16.644Z,3.50
2023-01-07T04:41:39.418Z,4.07
2023-01-07T04:44:01.639Z,3.70
2023-01-07T04:46:25.188Z,3.67
2023-01-07T04:48:47.654Z,3.67
2023-01-07T04:51:10.567Z,3.53
2023-01-07T04:53:33.483Z,3.77
2023-01-07T04:55:56.630Z,3.73
2023-01-07T04:58:19.129Z,3.97
2023-01-07T05:00:42.804Z,3.47
2023-01-07T05:03:05.954Z,3.70
2023-01-07T05:05:28.432Z,3.37
2023-01-07T05:07:50.994Z,3.40
2023-01-07T05:10:14.901Z,3.57
2023-01-07T05:12:37.787Z,3.47
2023-01-07T05:15:03.366Z,3.83
2023-01-07T05:17:25.696Z,3.37
2023-01-07T05:19:48.593Z,3.80
2023-01-07T05:22:11.895Z,3.80
2023-01-07T05:24:36.039Z,3.93
2023-01-07T05:26:58.263Z,3.90
2023-01-07T05:29:20.490Z,4.23
2023-01-07T05:31:43.789Z,3.87
2023-01-07T05:34:06.012Z,4.13
2023-01-07T05:36:28.586Z,3.60
2023-01-07T05:38:51.614Z,4.00
2023-01-07T05:41:13.958Z,3.87
2023-01-07T05:43:36.258Z,4.13
2023-01-07T05:45:59.742Z,3.40
2023-01-07T05:48:22.022Z,3.87
2023-01-07T05:50:44.497Z,4.20
2023-01-07T05:53:06.794Z,3.87
2023-01-07T05:55:29.018Z,3.80
2023-01-07T05:57:51.250Z,4.20
2023-01-07T06:00:13.805Z,4.10
2023-01-07T06:02:36.253Z,3.87
2023-01-07T06:04:58.520Z,4.17
2023-01-07T06:07:20.871Z,3.90
2023-01-07T06:09:43.131Z,3.97
2023-01-07T06:12:05.586Z,3.80
2023-01-07T06:14:27.983Z,3.53
2023-01-07T06:16:50.178Z,4.03
2023-01-07T06:19:12.532Z,4.03
2023-01-07T06:21:34.730Z,4.30
2023-01-07T06:23:57.341Z,4.20
2023-01-07T06:26:19.666Z,4.30
2023-01-07T06:28:41.892Z,4.20
2023-01-07T06:31:04.299Z,4.80
2023-01-07T06:33:26.560Z,4.93
2023-01-07T06:35:48.837Z,4.50
2023-01-07T06:38:11.079Z,4.03
2023-01-07T06:40:33.295Z,4.37
2023-01-07T06:42:55.542Z,4.63
2023-01-07T06:45:17.842Z,4.67
2023-01-07T06:47:40.041Z,4.30
2023-01-07T06:50:02.280Z,4.10
2023-01-07T06:52:24.495Z,4.10
2023-01-07T06:54:48.487Z,4.93
2023-01-07T06:57:11.223Z,4.17
2023-01-07T06:59:33.412Z,4.83
2023-01-07T07:01:55.848Z,4.10
2023-01-07T07:04:18.141Z,3.93
2023-01-07T07:06:40.369Z,4.23
2023-01-07T07:09:02.617Z,4.07
2023-01-07T07:11:24.867Z,4.30
2023-01-07T07:13:47.093Z,4.20
2023-01-07T07:16:09.396Z,4.00
2023-01-07T07:18:32.025Z,4.40
2023-01-07T07:20:54.323Z,4.37
2023-01-07T07:23:16.510Z,4.60
2023-01-07T07:25:38.752Z,4.43
2023-01-07T07:28:01.159Z,4.07
2023-01-07T07:30:23.358Z,4.60
2023-01-07T07:33:06.082Z,5.17
2023-01-07T07:35:28.299Z,5.00
2023-01-07T07:37:50.515Z,4.60
2023-01-07T07:40:13.018Z,5.07
2023-01-07T07:43:11.789Z,4.77
2023-01-07T07:45:19.693Z,4.87
2023-01-07T07:47:41.921Z,4.53
2023-01-07T07:50:04.352Z,5.17
2023-01-07T07:52:26.573Z,4.90
2023-01-07T07:54:48.807Z,5.17
2023-01-07T07:57:11.053Z,5.43
2023-01-07T07:59:33.349Z,5.47
2023-01-07T08:01:55.577Z,4.90
2023-01-07T08:04:17.888Z,5.33
2023-01-07T08:06:40.079Z,5.73
2023-01-07T08:09:02.648Z,5.63
2023-01-07T08:11:24.913Z,5.80
2023-01-07T08:13:47.227Z,5.60
2023-01-07T08:16:09.664Z,6.37
2023-01-07T08:18:32.028Z,5.70
2023-01-07T08:20:55.874Z,5.80
2023-01-07T08:23:18.197Z,5.87
2023-01-07T08:25:40.404Z,5.90
2023-01-07T08:28:02.670Z,5.77
2023-01-07T08:30:25.603Z,5.70
2023-01-07T08:32:47.965Z,5.80
2023-01-07T08:35:10.403Z,5.70
2023-01-07T08:37:32.694Z,5.30
2023-01-07T08:39:54.918Z,5.73
2023-01-07T08:42:17.221Z,6.33
2023-01-07T08:44:39.528Z,6.43
2023-01-07T08:47:02.686Z,6.07
2023-01-07T08:49:24.921Z,5.43
2023-01-07T08:51:47.109Z,5.80
2023-01-07T08:54:09.497Z,6.03
2023-01-07T08:56:33.511Z,5.40
2023-01-07T08:58:55.857Z,5.77
2023-01-07T09:01:18.205Z,6.10
2023-01-07T09:03:40.463Z,5.70
2023-01-07T09:06:02.777Z,5.53
2023-01-07T09:08:25.241Z,5.50
2023-01-07T09:10:47.761Z,5.00
2023-01-07T09:13:10.298Z,4.90
2023-01-07T09:15:32.572Z,4.77
2023-01-07T09:17:54.806Z,4.73
2023-01-07T09:20:17.219Z,4.50
2023-01-07T09:22:39.483Z,4.50
2023-01-07T09:25:01.834Z,4.37
2023-01-07T09:27:24.165Z,4.00
2023-01-07T09:29:46.524Z,4.30
2023-01-07T09:32:08.736Z,3.80
2023-01-07T09:34:32.062Z,3.80
2023-01-07T09:36:54.300Z,3.57
2023-01-07T09:39:16.826Z,3.90
2023-01-07T09:41:41.944Z,3.37
2023-01-07T09:44:10.574Z,3.17
2023-01-07T09:46:33.204Z,3.23
2023-01-07T09:48:58.469Z,3.43
2023-01-07T09:51:23.023Z,3.70
2023-01-07T09:53:48.290Z,3.30
2023-01-07T09:56:27.680Z,2.97
2023-01-07T09:58:50.399Z,3.13
2023-01-07T10:01:24.858Z,2.90
2023-01-07T10:03:50.292Z,3.13
2023-01-07T10:06:28.756Z,3.00
2023-01-07T10:09:04.263Z,2.33
2023-01-07T10:11:35.306Z,2.33
2023-01-07T10:14:16.700Z,2.60
2023-01-07T10:16:48.751Z,2.17
2023-01-07T10:19:11.054Z,2.30
2023-01-07T10:21:39.288Z,2.07
2023-01-07T10:24:04.605Z,2.03
2023-01-07T10:26:29.918Z,2.37
2023-01-07T10:28:55.941Z,1.90
2023-01-07T10:31:20.031Z,1.50
2023-01-07T10:33:42.646Z,2.10
2023-01-07T10:36:10.870Z,1.73
2023-01-07T10:38:35.390Z,2.10
2023-01-07T10:41:00.776Z,1.47
2023-01-07T10:43:35.289Z,1.80
2023-01-07T10:46:10.231Z,1.60
2023-01-07T10:48:44.377Z,1.90
2023-01-07T10:51:16.789Z,2.10
2023-01-07T10:53:57.548Z,2.10
2023-01-07T10:56:27.119Z,2.00
2023-01-07T10:58:50.105Z,2.13
2023-01-07T11:01:32.723Z,2.20
2023-01-07T11:03:56.246Z,2.30
2023-01-07T11:06:20.186Z,2.43
2023-01-07T11:08:45.101Z,2.07
2023-01-07T11:11:08.313Z,2.50
2023-01-07T11:13:32.053Z,2.50
2023-01-07T11:15:56.669Z,2.70
2023-01-07T11:18:24.099Z,2.37
2023-01-07T11:20:50.907Z,2.40
2023-01-07T11:23:31.918Z,2.77
2023-01-07T11:25:55.584Z,2.80
2023-01-07T11:28:19.178Z,2.43
2023-01-07T11:30:41.487Z,2.33
2023-01-07T11:33:06.036Z,2.87
2023-01-07T11:35:29.010Z,3.10
2023-01-07T11:37:51.481Z,3.17
2023-01-07T11:40:14.024Z,2.50
2023-01-07T11:42:47.991Z,2.40
2023-01-07T11:45:15.997Z,2.63
2023-01-07T11:47:39.335Z,2.73
2023-01-07T11:50:01.771Z,2.70
2023-01-07T11:52:25.100Z,3.53
2023-01-07T11:54:54.698Z,3.03
2023-01-07T11:57:25.391Z,3.20
2023-01-07T11:59:47.653Z,3.43
2023-01-07T12:02:23.801Z,3.27
2023-01-07T12:04:46.229Z,3.20
2023-01-07T12:07:13.254Z,3.33
2023-01-07T12:09:40.904Z,3.50
2023-01-07T12:12:29.191Z,3.17
2023-01-07T12:14:51.614Z,3.00
2023-01-07T12:17:20.002Z,3.83
2023-01-07T12:19:51.282Z,3.40
2023-01-07T12:22:17.015Z,3.50
2023-01-07T12:24:57.696Z,3.70
2023-01-07T12:27:23.231Z,3.23
2023-01-07T12:30:05.312Z,3.93
2023-01-07T12:32:32.983Z,3.40
2023-01-07T12:35:14.693Z,4.17
2023-01-07T12:37:57.388Z,3.50
2023-01-07T12:40:24.408Z,3.40
2023-01-07T12:42:51.529Z,3.40
2023-01-07T12:45:20.055Z,3.80
2023-01-07T12:47:46.489Z,3.80
2023-01-07T12:50:41.175Z,3.63
2023-01-07T12:53:07.812Z,3.47
2023-01-07T12:55:50.789Z,2.90
2023-01-07T12:58:20.202Z,3.43
2023-01-07T13:01:07.499Z,3.67
2023-01-07T13:03:44.447Z,3.30
2023-01-07T13:06:25.838Z,3.30
2023-01-07T13:08:55.377Z,2.97
2023-01-07T13:11:17.973Z,3.40
2023-01-07T13:13:42.645Z,3.33
2023-01-07T13:16:05.764Z,3.80
2023-01-07T13:18:30.169Z,3.30
2023-01-07T13:21:01.880Z,3.20
2023-01-07T13:23:45.939Z,3.93
2023-01-07T13:26:27.118Z,3.17
2023-01-07T13:28:52.459Z,3.40
2023-01-07T13:31:30.035Z,3.33
2023-01-07T13:34:01.425Z,3.13
2023-01-07T13:36:36.125Z,3.37
2023-01-07T13:39:22.218Z,3.23
2023-01-07T13:41:47.446Z,3.20
2023-01-07T13:44:09.903Z,3.83
2023-01-07T13:46:34.137Z,3.30
2023-01-07T13:48:56.429Z,2.93
2023-01-07T13:51:26.927Z,3.03
2023-01-07T13:53:49.191Z,2.53
2023-01-07T13:56:17.267Z,2.90
2023-01-07T13:58:53.176Z,2.97
2023-01-07T14:01:16.639Z,2.93
2023-01-07T14:03:44.003Z,3.20
2023-01-07T14:06:29.652Z,2.80
2023-01-07T14:08:51.828Z,3.03
2023-01-07T14:11:14.558Z,2.60
2023-01-07T14:13:42.131Z,2.70
2023-01-07T14:16:21.462Z,3.23
2023-01-07T14:19:04.105Z,2.37
2023-01-07T14:21:44.677Z,2.73
2023-01-07T14:24:06.922Z,2.83
2023-01-07T14:26:56.645Z,2.63
2023-01-07T14:29:45.317Z,2.63
2023-01-07T14:32:19.754Z,2.83
2023-01-07T14:34:42.053Z,2.83
2023-01-07T14:37:11.599Z,2.60
2023-01-07T14:39:36.902Z,2.20
2023-01-07T14:42:17.703Z,2.23
2023-01-07T14:44:40.076Z,2.40
2023-01-07T14:47:02.399Z,2.47
2023-01-07T14:49:38.059Z,2.50
2023-01-07T14:52:00.314Z,2.73
2023-01-07T14:54:25.686Z,2.83
2023-01-07T14:57:00.194Z,2.57
2023-01-07T14:59:22.430Z,3.03
2023-01-07T15:02:05.051Z,2.90
2023-01-07T15:04:45.881Z,2.17
2023-01-07T15:07:14.065Z,2.77
2023-01-07T15:10:02.928Z,2.80
2023-01-07T15:12:46.062Z,3.00
2023-01-07T15:15:27.215Z,2.30
2023-01-07T15:17:49.575Z,2.50
2023-01-07T15:20:12.193Z,2.70
2023-01-07T15:22:53.136Z,2.90
2023-01-07T15:25:24.264Z,2.53
2023-01-07T15:27:55.224Z,2.90
2023-01-07T15:30:31.542Z,2.80
2023-01-07T15:33:03.023Z,2.90
2023-01-07T15:35:32.349Z,2.90
2023-01-07T15:37:54.808Z,2.70
2023-01-07T15:40:18.283Z,3.17
2023-01-07T15:42:41.906Z,3.20
2023-01-07T15:45:04.465Z,2.80
2023-01-07T15:47:31.573Z,3.17
2023-01-07T15:49:53.843Z,3.10
2023-01-07T15:52:23.591Z,3.37
2023-01-07T15:54:45.920Z,3.23
2023-01-07T15:57:13.966Z,2.90
2023-01-07T15:59:37.880Z,3.13
2023-01-07T16:02:18.936Z,3.20
2023-01-07T16:04:43.778Z,3.10
2023-01-07T16:07:06.166Z,3.40
2023-01-07T16:09:29.012Z,3.10
2023-01-07T16:11:51.291Z,3.33
2023-01-07T16:14:17.863Z,3.73
2023-01-07T16:16:40.136Z,3.43
2023-01-07T16:19:03.634Z,3.40
2023-01-07T16:21:36.067Z,3.13
2023-01-07T16:23:58.473Z,3.70
2023-01-07T16:26:24.814Z,3.30
2023-01-07T16:28:51.429Z,3.77
2023-01-07T16:31:15.182Z,3.67
2023-01-07T16:33:37.833Z,3.43
2023-01-07T16:36:01.187Z,3.50
2023-01-07T16:38:23.828Z,3.47
2023-01-07T16:40:46.948Z,3.80
2023-01-07T16:43:27.926Z,3.70
2023-01-07T16:46:07.921Z,3.50
2023-01-07T16:48:30.459Z,3.70
2023-01-07T16:50:55.557Z,4.23
2023-01-07T16:53:25.750Z,3.90
2023-01-07T16:55:48.046Z,3.90
2023-01-07T16:58:30.639Z,3.27
2023-01-07T17:00:54.171Z,3.67
2023-01-07T17:03:16.776Z,3.50
2023-01-07T17:05:39.027Z,2.80
2023-01-07T17:08:06.345Z,3.40
2023-01-07T17:10:30.334Z,3.20
2023-01-07T17:12:56.230Z,3.43
2023-01-07T17:15:28.876Z,3.50
2023-01-07T17:17:51.150Z,3.60
2023-01-07T17:20:13.517Z,3.53
2023-01-07T17:22:38.188Z,3.40
2023-01-07T17:25:03.011Z,3.30
2023-01-07T17:27:27.773Z,3.10
2023-01-07T17:29:50.267Z,3.20
2023-01-07T17:32:15.432Z,3.07
2023-01-07T17:34:37.649Z,3.37
2023-01-07T17:36:59.896Z,3.33
2023-01-07T17:39:22.108Z,3.23
2023-01-07T17:42:03.249Z,3.40
2023-01-07T17:44:25.673Z,3.20
2023-01-07T17:46:47.905Z,3.30
2023-01-07T17:49:11.495Z,3.30
2023-01-07T17:51:38.217Z,3.60
2023-01-07T17:54:00.554Z,3.23
2023-01-07T17:56:22.801Z,3.50
2023-01-07T17:58:45.113Z,3.63
2023-01-07T18:01:08.780Z,3.30
2023-01-07T18:03:31.229Z,3.53
2023-01-07T18:05:53.530Z,3.33
2023-01-07T18:08:15.908Z,3.00
2023-01-07T18:10:58.532Z,3.60
2023-01-07T18:13:20.984Z,3.50
2023-01-07T18:15:43.457Z,3.87
2023-01-07T18:18:06.019Z,3.87
2023-01-07T18:20:28.283Z,3.83
2023-01-07T18:22:51.213Z,3.63
2023-01-07T18:25:20.993Z,4.67
2023-01-07T18:27:43.312Z,4.07
2023-01-07T18:30:05.768Z,3.83
2023-01-07T18:32:29.186Z,6.10
2023-01-07T18:34:51.489Z,8.33
2023-01-07T18:37:15.226Z,24.00
2023-01-07T18:39:37.688Z,4.43
2023-01-07T18:42:03.205Z,3.60
2023-01-07T18:44:25.884Z,4.20
2023-01-07T18:46:48.237Z,3.83
2023-01-07T18:49:11.620Z,3.90
2023-01-07T18:51:33.952Z,3.53
2023-01-07T18:53:56.375Z,4.17
2023-01-07T18:56:19.124Z,3.93
2023-01-07T18:58:43.991Z,4.00
2023-01-07T19:01:07.242Z,3.80
2023-01-07T19:03:29.673Z,4.23
2023-01-07T19:05:51.917Z,4.60
2023-01-07T19:08:14.212Z,4.33
2023-01-07T19:10:45.246Z,4.10
2023-01-07T19:13:07.775Z,4.20
2023-01-07T19:15:30.211Z,4.07
2023-01-07T19:17:52.645Z,4.73
2023-01-07T19:20:16.589Z,3.93
2023-01-07T19:22:41.229Z,4.20
2023-01-07T19:25:06.894Z,3.80
2023-01-07T19:27:29.180Z,4.03
2023-01-07T19:29:51.604Z,4.20
2023-01-07T19:32:16.895Z,4.13
2023-01-07T19:34:42.217Z,4.07
2023-01-07T19:37:04.663Z,3.97
2023-01-07T19:39:29.848Z,3.77
2023-01-07T19:41:52.667Z,3.50
2023-01-07T19:44:15.022Z,4.33
2023-01-07T19:46:38.015Z,3.83
2023-01-07T19:49:01.655Z,3.90
2023-01-07T19:51:24.082Z,4.00
2023-01-07T19:53:49.194Z,3.70
2023-01-07T19:56:12.790Z,4.43
2023-01-07T19:58:35.425Z,3.93
2023-01-07T20:01:03.100Z,4.47
2023-01-07T20:03:25.558Z,4.10
2023-01-07T20:05:47.943Z,4.37
2023-01-07T20:08:10.379Z,4.23
2023-01-07T20:10:32.630Z,4.23
2023-01-07T20:12:55.040Z,4.30
2023-01-07T20:15:17.315Z,3.93
2023-01-07T20:17:39.775Z,4.97
2023-01-07T20:20:02.036Z,4.40
2023-01-07T20:22:24.297Z,4.60
2023-01-07T20:24:46.751Z,4.67
2023-01-07T20:27:10.758Z,4.70
2023-01-07T20:29:33.024Z,3.97
2023-01-07T20:31:55.738Z,3.57
2023-01-07T20:34:18.117Z,3.33
2023-01-07T20:36:40.430Z,3.57
2023-01-07T20:39:05.806Z,3.53
2023-01-07T20:41:28.342Z,4.00
2023-01-07T20:43:54.858Z,3.90
2023-01-07T20:46:30.883Z,3.90
2023-01-07T20:48:53.352Z,4.00
2023-01-07T20:51:15.819Z,4.20
2023-01-07T20:53:38.358Z,3.50
2023-01-07T20:56:01.377Z,3.87
2023-01-07T20:58:27.420Z,3.80
2023-01-07T21:00:49.794Z,3.97
2023-01-07T21:03:12.488Z,4.03
2023-01-07T21:05:34.825Z,3.63
2023-01-07T21:07:59.172Z,3.57
2023-01-07T21:10:21.430Z,4.27
2023-01-07T21:12:43.644Z,4.10
2023-01-07T21:15:06.324Z,4.03
2023-01-07T21:17:28.635Z,4.00
2023-01-07T21:19:50.903Z,4.13
2023-01-07T21:22:13.193Z,3.40
2023-01-07T21:24:35.390Z,3.70
2023-01-07T21:27:00.700Z,4.27
2023-01-07T21:29:23.244Z,3.87
2023-01-07T21:31:46.133Z,4.23
2023-01-07T21:34:08.558Z,3.60
2023-01-07T21:36:30.857Z,3.87
2023-01-07T21:38:55.096Z,4.20
2023-01-07T21:41:17.873Z,4.13
2023-01-07T21:43:40.605Z,3.80
2023-01-07T21:46:03.628Z,4.63
2023-01-07T21:48:25.956Z,4.40
2023-01-07T21:50:48.231Z,4.30
2023-01-07T21:53:10.533Z,4.33
2023-01-07T21:55:33.094Z,4.50
2023-01-07T21:57:55.362Z,4.37
2023-01-07T22:00:17.727Z,5.10
2023-01-07T22:02:40.152Z,4.97
2023-01-07T22:05:02.433Z,5.13
2023-01-07T22:07:24.686Z,5.63
2023-01-07T22:09:47.244Z,5.07
2023-01-07T22:12:10.272Z,5.60
2023-01-07T22:14:32.877Z,6.07
2023-01-07T22:16:55.746Z,5.83
2023-01-07T22:19:18.085Z,5.93
2023-01-07T22:21:40.472Z,5.23
2023-01-07T22:24:02.751Z,6.07
2023-01-07T22:26:25.124Z,6.37
2023-01-07T22:28:50.623Z,5.90
2023-01-07T22:31:23.682Z,6.67
2023-01-07T22:33:46.259Z,6.00
2023-01-07T22:36:09.260Z,5.73
2023-01-07T22:38:32.012Z,7.00
2023-01-07T22:40:55.231Z,5.97
2023-01-07T22:43:18.887Z,6.23
2023-01-07T22:45:41.540Z,5.90
2023-01-07T22:48:03.858Z,5.67
2023-01-07T22:50:26.077Z,6.30
2023-01-07T22:52:48.360Z,6.53
2023-01-07T22:55:12.042Z,6.00
2023-01-07T22:57:35.078Z,6.17
2023-01-07T23:00:00.462Z,5.83
2023-01-07T23:02:22.934Z,5.57
2023-01-07T23:04:45.203Z,5.53
2023-01-07T23:07:07.447Z,5.43
2023-01-07T23:09:29.750Z,5.73
2023-01-07T23:11:52.195Z,5.20
2023-01-07T23:14:18.366Z,4.57
2023-01-07T23:16:40.659Z,4.80
2023-01-07T23:19:02.906Z,4.20
2023-01-07T23:21:25.155Z,4.27
2023-01-07T23:23:47.402Z,4.40
2023-01-07T23:26:13.252Z,5.10
2023-01-07T23:28:35.588Z,4.20
2023-01-07T23:31:01.846Z,4.20
2023-01-07T23:33:24.144Z,4.03
2023-01-07T23:35:46.391Z,3.93
2023-01-07T23:38:08.650Z,3.87
2023-01-07T23:40:31.179Z,4.10
2023-01-07T23:42:53.416Z,3.70
2023-01-07T23:45:16.670Z,3.87
2023-01-07T23:47:38.900Z,3.97
2023-01-07T23:50:01.115Z,4.60
2023-01-07T23:52:23.368Z,3.70
2023-01-07T23:54:46.187Z,4.53
2023-01-07T23:57:08.666Z,4.47
2023-01-07T23:59:31.404Z,4.33
